createdAt,value
2018-06-19T00:01:56.263Z,13.93
2018-06-19T00:04:23.537Z,14.53
2018-06-19T00:06:50.908Z,15.28
2018-06-19T00:09:18.226Z,15.00
2018-06-19T00:11:46.097Z,15.67
2018-06-19T00:14:13.369Z,14.60
2018-06-19T00:16:40.700Z,15.20
2018-06-19T00:19:08.367Z,14.77
2018-06-19T00:21:38.145Z,14.80
2018-06-19T00:24:05.533Z,14.18
2018-06-19T00:26:33.100Z,15.30
2018-06-19T00:29:00.456Z,16.60
2018-06-19T00:31:27.801Z,15.32
2018-06-19T00:33:55.125Z,15.80
2018-06-19T00:36:22.408Z,16.00
2018-06-19T00:38:49.652Z,16.17
2018-06-19T00:41:16.963Z,15.10
2018-06-19T00:43:44.236Z,18.27
2018-06-19T00:46:11.830Z,17.70
2018-06-19T00:48:39.136Z,17.50
2018-06-19T00:51:06.417Z,17.50
2018-06-19T00:53:33.726Z,17.05
2018-06-19T00:56:12.782Z,17.52
2018-06-19T00:58:40.233Z,17.27
2018-06-19T01:01:07.488Z,18.90
2018-06-19T01:03:34.910Z,18.15
2018-06-19T01:06:02.244Z,17.82
2018-06-19T01:08:29.550Z,19.07
2018-06-19T01:10:56.817Z,18.20
2018-06-19T01:13:24.073Z,17.50
2018-06-19T01:15:51.505Z,17.50
2018-06-19T01:18:18.797Z,18.95
2018-06-19T01:20:46.043Z,18.12
2018-06-19T01:23:13.314Z,17.85
2018-06-19T01:25:40.637Z,19.27
2018-06-19T01:28:08.296Z,18.48
2018-06-19T01:30:35.739Z,18.10
2018-06-19T01:33:02.945Z,18.80
2018-06-19T01:35:30.185Z,18.15
2018-06-19T01:37:57.527Z,18.50
2018-06-19T01:40:24.753Z,18.98
2018-06-19T01:42:52.089Z,18.53
2018-06-19T01:45:19.431Z,18.25
2018-06-19T01:47:46.660Z,18.32
2018-06-19T01:50:13.922Z,19.60
2018-06-19T01:52:41.182Z,19.52
2018-06-19T01:55:09.421Z,20.62
2018-06-19T01:57:36.674Z,18.82
2018-06-19T02:00:03.965Z,20.45
2018-06-19T02:02:31.225Z,19.20
2018-06-19T02:04:58.588Z,19.33
2018-06-19T02:07:25.865Z,20.80
2018-06-19T02:09:53.120Z,20.35
2018-06-19T02:12:20.581Z,20.95
2018-06-19T02:14:47.858Z,20.80
2018-06-19T02:17:15.392Z,22.15
2018-06-19T02:19:42.742Z,19.90
2018-06-19T02:22:10.062Z,21.40
2018-06-19T02:24:37.286Z,20.90
2018-06-19T02:27:04.665Z,21.17
2018-06-19T02:29:31.952Z,21.40
2018-06-19T02:31:59.454Z,21.42
2018-06-19T02:34:26.701Z,22.32
2018-06-19T02:36:53.969Z,21.70
2018-06-19T02:39:21.224Z,22.40
2018-06-19T02:41:48.584Z,20.70
2018-06-19T02:44:15.856Z,21.60
2018-06-19T02:46:43.149Z,21.90
2018-06-19T02:49:10.433Z,21.30
2018-06-19T02:51:38.205Z,22.45
2018-06-19T02:54:05.483Z,21.90
2018-06-19T02:56:32.844Z,21.52
2018-06-19T02:59:00.321Z,22.70
2018-06-19T03:01:27.602Z,23.12
2018-06-19T03:03:54.888Z,22.27
2018-06-19T03:06:22.251Z,22.17
2018-06-19T03:08:49.556Z,22.85
2018-06-19T03:11:17.669Z,22.73
2018-06-19T03:13:44.943Z,24.10
2018-06-19T03:16:12.201Z,22.55
2018-06-19T03:18:39.531Z,23.83
2018-06-19T03:21:06.956Z,23.87
2018-06-19T03:23:34.192Z,22.07
2018-06-19T03:26:01.561Z,23.32
2018-06-19T03:28:28.823Z,22.62
2018-06-19T03:30:56.214Z,22.52
2018-06-19T03:33:23.485Z,22.45
2018-06-19T03:35:50.741Z,23.07
2018-06-19T03:38:18.150Z,22.07
2018-06-19T03:40:45.359Z,22.70
2018-06-19T03:43:12.657Z,22.98
2018-06-19T03:45:39.954Z,22.90
2018-06-19T03:48:07.212Z,22.48
2018-06-19T03:50:34.481Z,22.70
2018-06-19T03:53:01.817Z,22.22
2018-06-19T03:55:29.508Z,21.25
2018-06-19T03:57:56.781Z,21.68
2018-06-19T04:00:24.025Z,23.05
2018-06-19T04:02:51.333Z,21.40
2018-06-19T04:05:18.608Z,21.00
2018-06-19T04:07:45.787Z,20.23
2018-06-19T04:10:13.219Z,20.05
2018-06-19T04:12:41.144Z,19.42
2018-06-19T04:15:08.488Z,20.20
2018-06-19T04:17:37.336Z,20.57
2018-06-19T04:20:04.657Z,19.25
2018-06-19T04:22:31.946Z,19.32
2018-06-19T04:24:59.182Z,18.48
2018-06-19T04:27:27.025Z,18.50
2018-06-19T04:29:54.329Z,18.42
2018-06-19T04:32:21.981Z,18.70
2018-06-19T04:34:49.321Z,18.00
2018-06-19T04:37:16.553Z,18.32
2018-06-19T04:39:43.769Z,18.97
2018-06-19T04:42:11.148Z,18.30
2018-06-19T04:44:38.342Z,19.48
2018-06-19T04:47:05.613Z,20.27
2018-06-19T04:49:33.164Z,18.33
2018-06-19T04:52:00.542Z,18.52
2018-06-19T04:54:27.801Z,20.20
2018-06-19T04:56:55.022Z,18.00
2018-06-19T04:59:22.269Z,18.42
2018-06-19T05:01:49.660Z,18.50
2018-06-19T05:04:16.985Z,19.50
2018-06-19T05:06:46.616Z,18.30
2018-06-19T05:09:14.400Z,18.48
2018-06-19T05:11:43.194Z,19.32
2018-06-19T05:14:10.836Z,18.10
2018-06-19T05:16:38.658Z,18.10
2018-06-19T05:19:06.022Z,18.55
2018-06-19T05:21:33.470Z,17.83
2018-06-19T05:24:00.745Z,18.43
2018-06-19T05:26:28.022Z,18.30
2018-06-19T05:28:55.389Z,18.20
2018-06-19T05:31:22.954Z,16.20
2018-06-19T05:33:51.284Z,17.30
2018-06-19T05:36:18.695Z,16.60
2018-06-19T05:38:46.024Z,16.30
2018-06-19T05:41:13.321Z,17.93
2018-06-19T05:43:40.637Z,15.00
2018-06-19T05:46:07.858Z,16.07
2018-06-19T05:48:35.189Z,16.20
2018-06-19T05:51:02.713Z,16.70
2018-06-19T05:53:29.964Z,15.90
2018-06-19T05:55:57.198Z,16.27
2018-06-19T05:58:24.497Z,15.63
2018-06-19T06:00:51.760Z,15.77
2018-06-19T06:03:19.106Z,15.80
2018-06-19T06:05:46.412Z,14.67
2018-06-19T06:08:13.621Z,15.60
2018-06-19T06:10:40.902Z,14.50
2018-06-19T06:13:08.147Z,14.53
2018-06-19T06:15:35.463Z,14.13
2018-06-19T06:18:02.732Z,16.43
2018-06-19T06:20:30.040Z,14.00
2018-06-19T06:22:57.389Z,15.07
2018-06-19T06:25:24.774Z,14.67
2018-06-19T06:27:52.008Z,14.07
2018-06-19T06:30:20.125Z,13.20
2018-06-19T06:32:47.512Z,14.07
2018-06-19T06:35:14.855Z,14.70
2018-06-19T06:37:42.077Z,14.40
2018-06-19T06:40:09.397Z,14.87
2018-06-19T06:42:36.614Z,14.20
2018-06-19T06:45:04.330Z,14.55
2018-06-19T06:47:31.634Z,14.05
2018-06-19T06:49:58.909Z,13.40
2018-06-19T06:52:26.251Z,11.90
2018-06-19T06:54:53.563Z,12.80
2018-06-19T06:57:20.778Z,12.50
2018-06-19T06:59:48.107Z,12.70
2018-06-19T07:02:15.360Z,12.03
2018-06-19T07:04:42.767Z,11.60
2018-06-19T07:07:10.557Z,11.97
2018-06-19T07:09:37.761Z,10.13
2018-06-19T07:12:05.436Z,10.47
2018-06-19T07:14:32.761Z,10.33
2018-06-19T07:17:00.065Z,11.00
2018-06-19T07:19:27.309Z,10.10
2018-06-19T07:21:54.608Z,9.67
2018-06-19T07:24:22.553Z,10.13
2018-06-19T07:26:49.790Z,10.80
2018-06-19T07:29:17.022Z,10.30
2018-06-19T07:31:44.341Z,10.40
2018-06-19T07:34:12.383Z,9.87
2018-06-19T07:36:39.689Z,10.20
2018-06-19T07:39:07.965Z,10.33
2018-06-19T07:41:35.270Z,9.87
2018-06-19T07:44:02.571Z,9.07
2018-06-19T07:46:29.725Z,10.70
2018-06-19T07:48:56.941Z,10.20
2018-06-19T07:51:24.225Z,9.10
2018-06-19T07:53:51.482Z,9.27
2018-06-19T07:56:18.701Z,9.57
2018-06-19T07:58:45.955Z,9.63
2018-06-19T08:01:13.199Z,9.80
2018-06-19T08:03:40.610Z,10.18
2018-06-19T08:06:07.864Z,10.38
2018-06-19T08:08:35.125Z,9.90
2018-06-19T08:11:02.442Z,9.85
2018-06-19T08:13:29.721Z,10.30
2018-06-19T08:15:56.974Z,10.00
2018-06-19T08:18:24.272Z,10.78
2018-06-19T08:20:51.529Z,10.70
2018-06-19T08:23:18.819Z,10.25
2018-06-19T08:25:46.197Z,10.03
2018-06-19T08:28:13.784Z,10.40
2018-06-19T08:30:40.977Z,10.67
2018-06-19T08:33:08.245Z,10.40
2018-06-19T08:35:35.461Z,9.00
2018-06-19T08:38:02.737Z,10.23
2018-06-19T08:40:30.015Z,9.20
2018-06-19T08:42:57.313Z,9.75
2018-06-19T08:45:24.706Z,10.20
2018-06-19T08:47:51.916Z,10.50
2018-06-19T08:50:19.189Z,11.50
2018-06-19T08:52:46.425Z,12.33
2018-06-19T08:55:13.734Z,12.00
2018-06-19T08:57:40.984Z,11.90
2018-06-19T11:00:02.025Z,14.80
2018-06-19T11:02:29.424Z,14.05
2018-06-19T11:04:56.696Z,14.10
2018-06-19T11:07:28.668Z,14.38
2018-06-19T11:09:57.556Z,14.50
2018-06-19T11:12:25.101Z,14.53
2018-06-19T11:14:52.366Z,14.98
2018-06-19T11:17:19.609Z,14.98
2018-06-19T11:19:48.678Z,15.00
2018-06-19T11:22:15.973Z,14.70
2018-06-19T12:25:52.777Z,10.30
2018-06-19T12:35:40.245Z,12.40
2018-06-19T12:38:07.482Z,11.73
2018-06-19T12:40:34.796Z,12.10
2018-06-19T12:43:02.055Z,13.03
2018-06-19T12:45:29.286Z,13.10
2018-06-19T12:47:56.564Z,13.03
2018-06-19T12:50:36.574Z,13.67
2018-06-19T12:53:16.046Z,14.47
2018-06-19T12:55:55.253Z,13.40
2018-06-19T12:58:22.761Z,13.47
2018-06-19T13:00:50.064Z,14.53
2018-06-19T13:03:29.170Z,12.23
2018-06-19T13:06:02.215Z,11.12
2018-06-19T13:08:29.757Z,9.58
2018-06-19T13:10:57.087Z,9.85
2018-06-19T13:13:35.808Z,8.85
2018-06-19T13:16:03.133Z,8.63
2018-06-19T13:23:31.479Z,8.33
2018-06-19T13:25:59.130Z,8.35
2018-06-19T13:28:32.173Z,8.60
2018-06-19T13:31:10.990Z,8.80
2018-06-19T13:33:38.298Z,9.30
2018-06-19T13:36:05.647Z,7.80
2018-06-19T13:38:32.931Z,7.20
2018-06-19T13:41:23.064Z,6.90
2018-06-19T13:44:03.558Z,7.00
2018-06-19T13:46:31.144Z,6.70
2018-06-19T13:48:58.376Z,6.10
2018-06-19T13:51:25.884Z,6.60
2018-06-19T13:53:53.275Z,5.00
2018-06-19T13:57:36.401Z,5.05
2018-06-19T14:00:09.218Z,4.70
2018-06-19T14:02:36.546Z,4.70
2018-06-19T14:05:04.433Z,4.00
2018-06-19T14:32:54.201Z,4.42
2018-06-19T14:59:54.827Z,5.47
2018-06-19T15:02:22.089Z,4.40
2018-06-19T15:04:49.384Z,4.40
2018-06-19T15:07:16.681Z,4.40
2018-06-19T15:09:43.970Z,3.97
2018-06-19T15:12:11.780Z,3.90
2018-06-19T15:44:02.951Z,2.85
2018-06-19T15:46:30.218Z,2.70
2018-06-19T15:48:57.806Z,2.10
2018-06-19T15:51:25.357Z,2.53
2018-06-19T15:53:52.728Z,2.77
2018-06-19T15:56:20.030Z,2.40
2018-06-19T15:58:47.294Z,2.15
2018-06-19T16:01:14.636Z,2.30
2018-06-19T16:03:41.924Z,2.30
2018-06-19T16:06:09.194Z,2.70
2018-06-19T16:08:36.968Z,2.00
2018-06-19T16:11:04.235Z,2.08
2018-06-19T16:13:31.523Z,3.55
2018-06-19T16:15:59.011Z,2.00
2018-06-19T16:18:26.258Z,2.50
2018-06-19T16:20:53.562Z,2.60
2018-06-19T16:23:20.985Z,2.10
2018-06-19T16:25:48.526Z,2.40
2018-06-19T16:28:15.755Z,2.98
2018-06-19T16:30:42.960Z,3.55
2018-06-19T16:33:10.570Z,2.40
2018-06-19T16:35:37.897Z,3.13
2018-06-19T16:38:05.285Z,4.20
2018-06-19T16:40:32.572Z,4.03
2018-06-19T16:42:59.913Z,3.27
2018-06-19T16:45:27.296Z,4.27
2018-06-19T16:47:54.537Z,2.93
2018-06-19T16:55:15.434Z,3.30
2018-06-19T16:57:42.719Z,3.03
2018-06-19T17:00:10.101Z,2.80
2018-06-19T17:02:37.318Z,2.63
2018-06-19T17:05:04.683Z,2.77
2018-06-19T17:07:31.913Z,3.70
2018-06-19T17:09:59.213Z,4.00
2018-06-19T17:12:26.484Z,3.30
2018-06-19T17:14:53.779Z,3.97
2018-06-19T17:17:21.067Z,3.30
2018-06-19T17:19:48.476Z,2.77
2018-06-19T17:22:15.810Z,4.27
2018-06-19T17:24:43.082Z,3.60
2018-06-19T17:27:10.715Z,2.50
2018-06-19T17:29:38.025Z,2.40
2018-06-19T17:32:05.264Z,2.60
2018-06-19T17:36:59.328Z,3.00
2018-06-19T17:41:53.352Z,3.47
2018-06-19T17:44:20.602Z,3.10
2018-06-19T17:46:47.833Z,3.67
2018-06-19T17:51:42.106Z,3.50
2018-06-19T17:54:09.390Z,3.60
2018-06-19T17:56:36.590Z,3.50
2018-06-19T17:59:04.058Z,2.60
2018-06-19T18:01:31.325Z,2.60
2018-06-19T18:03:58.664Z,2.97
2018-06-19T18:06:25.891Z,3.00
2018-06-19T18:08:53.184Z,2.80
2018-06-19T18:11:20.433Z,3.53
2018-06-19T18:13:47.801Z,2.70
2018-06-19T18:16:15.125Z,3.23
2018-06-19T18:18:42.486Z,4.77
2018-06-19T18:21:09.839Z,3.90
2018-06-19T18:23:37.207Z,4.30
2018-06-19T18:26:04.650Z,3.60
2018-06-19T18:28:31.968Z,3.50
2018-06-19T18:30:59.264Z,4.03
2018-06-19T18:33:26.481Z,3.90
2018-06-19T18:35:53.869Z,5.22
2018-06-19T18:38:21.169Z,5.92
2018-06-19T18:40:48.677Z,3.80
2018-06-19T18:43:16.187Z,3.92
2018-06-19T18:45:43.546Z,4.83
2018-06-19T18:48:10.953Z,6.60
2018-06-19T18:50:38.209Z,4.30
2018-06-19T18:53:05.523Z,4.40
2018-06-19T18:55:32.809Z,4.30
2018-06-19T18:58:00.074Z,2.90
2018-06-19T19:00:27.371Z,4.00
2018-06-19T19:02:54.641Z,3.37
2018-06-19T19:05:21.924Z,4.12
2018-06-19T19:07:49.230Z,4.70
2018-06-19T19:10:22.432Z,4.30
2018-06-19T19:12:49.922Z,3.40
2018-06-19T19:15:22.839Z,4.00
2018-06-19T19:17:55.896Z,3.90
2018-06-19T19:20:23.241Z,3.60
2018-06-19T19:22:50.465Z,4.33
2018-06-19T19:25:17.742Z,4.90
2018-06-19T19:27:50.682Z,4.67
2018-06-19T19:30:18.002Z,4.55
2018-06-19T19:32:45.267Z,3.70
2018-06-19T19:35:12.788Z,3.00
2018-06-19T19:37:45.678Z,3.50
2018-06-19T19:40:13.026Z,3.10
2018-06-19T19:42:40.289Z,3.33
2018-06-19T19:45:07.608Z,3.90
2018-06-19T19:47:40.556Z,4.30
2018-06-19T19:50:07.831Z,4.30
2018-06-19T19:52:35.157Z,5.40
2018-06-19T19:55:02.438Z,3.80
2018-06-19T19:57:36.118Z,3.80
2018-06-19T20:00:04.473Z,3.43
2018-06-19T20:02:31.707Z,3.43
2018-06-19T20:04:59.161Z,3.57
2018-06-19T20:07:26.389Z,3.57
2018-06-19T20:09:53.621Z,4.40
2018-06-19T20:12:20.998Z,3.23
2018-06-19T20:14:48.253Z,2.83
2018-06-19T20:17:15.726Z,3.93
2018-06-19T20:19:42.944Z,3.63
2018-06-19T20:22:10.150Z,4.20
2018-06-19T20:24:37.472Z,4.73
2018-06-19T20:27:04.792Z,4.17
2018-06-19T20:29:32.090Z,5.20
2018-06-19T20:31:59.410Z,4.97
2018-06-19T20:34:26.790Z,4.87
2018-06-19T20:36:54.018Z,4.20
2018-06-19T20:39:21.330Z,3.27
2018-06-19T20:41:48.855Z,4.20
2018-06-19T20:44:16.185Z,3.97
2018-06-19T20:46:43.520Z,4.33
2018-06-19T20:49:10.772Z,3.50
2018-06-19T20:51:38.088Z,4.10
2018-06-19T20:54:05.395Z,3.50
2018-06-19T20:56:32.743Z,4.23
2018-06-19T20:59:00.104Z,3.63
2018-06-19T21:01:27.480Z,4.70
2018-06-19T21:03:54.845Z,4.00
2018-06-19T21:06:22.187Z,4.43
2018-06-19T21:08:49.565Z,4.70
2018-06-19T21:11:16.981Z,4.67
2018-06-19T21:13:44.329Z,5.93
2018-06-19T21:16:12.479Z,5.23
2018-06-19T21:18:39.859Z,5.67
2018-06-19T21:21:07.870Z,5.10
2018-06-19T21:23:35.665Z,5.07
2018-06-19T21:26:03.730Z,4.63
2018-06-19T21:28:31.056Z,4.63
2018-06-19T21:30:58.784Z,5.07
2018-06-19T21:33:27.346Z,5.60
2018-06-19T21:35:54.715Z,4.70
2018-06-19T21:38:22.091Z,5.70
2018-06-19T21:40:49.417Z,4.70
2018-06-19T21:43:17.135Z,4.30
2018-06-19T21:45:44.444Z,5.00
2018-06-19T21:48:11.784Z,4.10
2018-06-19T21:50:39.145Z,3.77
2018-06-19T21:53:06.561Z,5.37
2018-06-19T21:55:33.908Z,4.97
2018-06-19T21:58:01.250Z,4.33
2018-06-19T22:00:29.477Z,4.70
2018-06-19T22:02:56.911Z,3.93
2018-06-19T22:05:24.272Z,3.90
2018-06-19T22:07:51.716Z,4.77
2018-06-19T22:10:19.024Z,3.80
2018-06-19T22:12:46.358Z,4.20
2018-06-19T22:15:14.049Z,4.40
2018-06-19T22:17:41.399Z,3.87
2018-06-19T22:20:08.742Z,4.10
2018-06-19T22:22:36.080Z,4.17
2018-06-19T22:25:03.535Z,3.97
2018-06-19T22:27:30.860Z,3.57
2018-06-19T22:29:58.205Z,3.93
2018-06-19T22:32:25.637Z,4.33
2018-06-19T22:34:53.037Z,3.80
2018-06-19T22:37:20.484Z,3.90
2018-06-19T22:39:47.892Z,3.40
2018-06-19T22:42:15.244Z,4.13
2018-06-19T22:44:42.600Z,3.67
2018-06-19T22:47:09.973Z,4.17
2018-06-19T22:49:37.412Z,4.00
2018-06-19T22:52:04.752Z,3.83
2018-06-19T22:54:32.113Z,3.30
2018-06-19T22:56:59.720Z,4.13
2018-06-19T22:59:27.069Z,4.70
2018-06-19T23:01:54.433Z,4.50
2018-06-19T23:04:21.768Z,4.40
2018-06-19T23:06:49.124Z,4.30
2018-06-19T23:09:16.528Z,3.23
2018-06-19T23:11:43.903Z,4.07
2018-06-19T23:14:11.312Z,4.47
2018-06-19T23:16:38.646Z,3.93
2018-06-19T23:19:06.075Z,3.83
2018-06-19T23:21:33.415Z,4.47
2018-06-19T23:24:00.775Z,3.47
2018-06-19T23:26:28.148Z,4.30
2018-06-19T23:28:55.547Z,4.00
2018-06-19T23:31:22.902Z,3.63
2018-06-19T23:33:50.264Z,3.43
2018-06-19T23:36:17.687Z,3.53
2018-06-19T23:38:45.064Z,3.73
2018-06-19T23:41:12.531Z,3.60
2018-06-19T23:43:39.899Z,4.00
2018-06-19T23:46:07.269Z,3.80
2018-06-19T23:48:34.736Z,4.53
2018-06-19T23:51:02.099Z,3.67
2018-06-19T23:53:29.416Z,4.00
2018-06-19T23:55:56.771Z,3.70
2018-06-19T23:58:24.155Z,4.20
